Time;durP1;ratioP1;P1;durP2;ratioP2;P2;SDS_P1;SDS_P2;PMS_P1;PMS_P2;Temp;Humidity;BMP_temperature;BMP_pressure;BME280_temperature;BME280_humidity;BME280_pressure;Samples;Min_cycle;Max_cycle;Signal;HPM_P1;HPM_P2
2021/05/02 00:03:35;;;;;;;43.95;33.35;;;;;;;12.75;65.23;98174.27;263469;1098;114930;-75
2021/05/02 00:08:39;;;;;;;44.68;32.60;;;;;;;12.71;65.94;98151.49;263475;1104;114918;-81
2021/05/02 00:13:43;;;;;;;44.85;31.95;;;;;;;12.72;66.09;98136.31;263462;1104;114657;-79
2021/05/02 00:18:47;;;;;;;42.95;32.90;;;;;;;12.73;65.92;98111.30;263613;1104;114736;-72
2021/05/02 00:23:51;;;;;;;44.48;33.68;;;;;;;12.78;66.24;98103.76;263525;1104;114890;-77
2021/05/02 00:28:56;;;;;;;46.28;33.35;;;;;;;12.78;65.93;98087.73;263521;1098;114744;-76
2021/05/02 00:33:59;;;;;;;47.05;33.73;;;;;;;12.73;65.66;98090.78;263524;1104;114710;-69
2021/05/02 00:39:04;;;;;;;47.08;34.78;;;;;;;12.69;66.09;98077.84;263443;1099;115153;-70
2021/05/02 00:44:29;;;;;;;45.63;33.55;;;;;;;12.66;65.51;98060.26;263507;1104;115262;-76
2021/05/02 00:49:38;;;;;;;47.25;33.23;;;;;;;12.69;65.94;98069.84;263478;1104;118031;-69
2021/05/02 00:54:47;;;;;;;46.65;33.25;;;;;;;12.71;65.88;98084.75;263483;1104;114851;-70
2021/05/02 01:00:01;;;;;;;49.60;34.28;;;;;;;12.76;65.79;98062.98;263535;1099;114932;-70
2021/05/02 01:05:10;;;;;;;49.68;35.13;;;;;;;12.73;66.48;98077.44;263496;1099;114877;-75
2021/05/02 01:10:17;;;;;;;53.03;36.45;;;;;;;12.71;66.44;98074.07;263517;1104;114923;-69
2021/05/02 01:15:25;;;;;;;54.25;35.05;;;;;;;12.65;66.73;98052.40;263426;1098;114634;-69
2021/05/02 01:20:33;;;;;;;50.18;32.90;;;;;;;12.59;66.40;98040.41;263511;1099;114889;-70
2021/05/02 01:25:37;;;;;;;48.23;33.13;;;;;;;12.58;66.55;98035.23;263587;1099;114966;-71
2021/05/02 01:30:41;;;;;;;55.15;34.28;;;;;;;12.61;66.22;98025.13;263542;1104;115011;-69
2021/05/02 01:35:46;;;;;;;52.80;34.88;;;;;;;12.62;66.36;98015.29;263505;1098;115158;-70
2021/05/02 01:40:49;;;;;;;52.30;35.78;;;;;;;12.62;66.80;97996.61;263424;1104;115383;-70
2021/05/02 01:45:53;;;;;;;57.20;36.13;;;;;;;12.62;66.93;97967.25;263449;1100;114823;-76
2021/05/02 01:51:04;;;;;;;57.48;36.90;;;;;;;12.54;66.34;97959.92;263532;1104;114696;-77
2021/05/02 01:56:07;;;;;;;52.63;33.85;;;;;;;12.49;66.59;97954.96;263501;1098;114952;-70
2021/05/02 02:01:15;;;;;;;53.78;33.48;;;;;;;12.50;67.18;97935.33;263538;1104;114589;-69
2021/05/02 02:06:18;;;;;;;55.85;35.05;;;;;;;12.48;66.85;97915.92;263528;1098;114857;-76
2021/05/02 02:11:22;;;;;;;60.58;36.80;;;;;;;12.48;67.19;97889.23;263617;1104;115179;-73
2021/05/02 02:16:25;;;;;;;60.38;37.05;;;;;;;12.45;67.02;97894.84;263232;1104;114787;-69
2021/05/02 02:21:28;;;;;;;62.23;38.78;;;;;;;12.36;67.56;97886.80;263620;1098;114813;-76
2021/05/02 02:26:40;;;;;;;61.00;35.50;;;;;;;12.31;67.06;97893.39;263694;1104;114565;-76
2021/05/02 02:31:46;;;;;;;59.38;36.35;;;;;;;12.33;67.27;97882.60;263404;1104;117472;-76
2021/05/02 02:36:49;;;;;;;64.60;36.90;;;;;;;12.33;67.70;97871.05;263556;1104;114743;-76
2021/05/02 02:41:53;;;;;;;61.58;38.10;;;;;;;12.31;68.12;97857.87;263427;1099;114572;-70
2021/05/02 02:47:00;;;;;;;61.83;37.50;;;;;;;12.26;68.29;97850.28;262612;1104;114429;-71
2021/05/02 02:52:03;;;;;;;56.67;35.67;;;;;;;12.23;67.22;97847.04;262477;1099;115245;-74
2021/05/02 02:57:08;;;;;;;63.18;35.63;;;;;;;12.21;67.74;97844.49;263506;1104;115229;-79
2021/05/02 03:02:13;;;;;;;58.73;34.43;;;;;;;12.20;67.88;97832.14;263508;1099;115037;-78
2021/05/02 03:07:19;;;;;;;56.58;35.68;;;;;;;12.23;67.85;97807.03;263500;1104;114690;-70
2021/05/02 03:12:24;;;;;;;57.38;35.93;;;;;;;12.21;67.75;97793.81;263473;1099;114696;-70
2021/05/02 03:17:32;;;;;;;59.38;35.73;;;;;;;12.18;67.95;97779.91;263468;1104;114854;-76
2021/05/02 03:23:05;;;;;;;60.20;37.03;;;;;;;12.13;68.41;97768.82;263162;1100;115158;-71
2021/05/02 03:28:14;;;;;;;58.03;34.95;;;;;;;12.10;68.42;97758.42;263500;1099;114721;-71
2021/05/02 03:33:19;;;;;;;54.53;33.90;;;;;;;12.08;68.21;97742.54;263496;1104;115198;-77
2021/05/02 03:38:28;;;;;;;58.45;36.80;;;;;;;12.08;68.89;97732.71;263437;1099;114755;-77
2021/05/02 03:43:31;;;;;;;51.80;33.50;;;;;;;12.11;69.03;97733.43;263214;1104;114967;-77
2021/05/02 03:48:35;;;;;;;55.43;34.30;;;;;;;12.08;68.58;97723.88;263508;1099;115063;-72
2021/05/02 03:53:38;;;;;;;57.40;35.63;;;;;;;12.04;68.76;97709.97;263440;1103;114687;-78
2021/05/02 03:58:41;;;;;;;54.78;34.20;;;;;;;12.02;68.90;97709.28;263557;1099;114765;-78
2021/05/02 04:03:44;;;;;;;48.88;31.70;;;;;;;12.04;68.58;97701.97;263514;1104;114757;-80
2021/05/02 04:08:47;;;;;;;54.93;33.98;;;;;;;12.08;69.22;97713.20;263511;1098;114705;-72
2021/05/02 04:13:51;;;;;;;57.15;34.70;;;;;;;12.13;68.60;97697.66;263492;1104;114929;-72
2021/05/02 04:18:55;;;;;;;54.40;35.10;;;;;;;12.17;69.38;97699.05;263517;1104;114802;-73
2021/05/02 04:23:58;;;;;;;55.75;34.28;;;;;;;12.19;69.09;97677.56;263442;1099;114764;-79
2021/05/02 04:29:01;;;;;;;56.00;33.53;;;;;;;12.20;69.39;97661.44;263129;1104;114509;-77
2021/05/02 04:34:05;;;;;;;50.83;31.80;;;;;;;12.24;68.97;97678.01;263503;1099;115104;-70
2021/05/02 04:39:08;;;;;;;56.83;34.03;;;;;;;12.28;68.91;97677.58;263499;1104;114983;-78
2021/05/02 04:44:11;;;;;;;56.53;33.70;;;;;;;12.30;69.18;97658.78;263467;1097;115028;-78
2021/05/02 04:49:14;;;;;;;52.63;31.35;;;;;;;12.35;69.41;97648.52;263212;1104;114838;-71
2021/05/02 04:54:17;;;;;;;57.15;31.88;;;;;;;12.34;69.01;97651.34;263501;1099;114761;-80
2021/05/02 04:59:20;;;;;;;46.28;28.90;;;;;;;12.38;69.81;97650.91;263542;1104;114820;-80
2021/05/02 05:04:23;;;;;;;49.63;31.50;;;;;;;12.41;69.58;97647.13;263497;1099;114815;-80
2021/05/02 05:09:27;;;;;;;47.30;31.55;;;;;;;12.44;69.76;97649.52;263468;1104;114898;-73
2021/05/02 05:14:30;;;;;;;50.53;29.95;;;;;;;12.44;70.01;97673.53;263487;1100;115138;-73
2021/05/02 05:19:33;;;;;;;45.53;29.50;;;;;;;12.46;69.08;97666.20;263499;1104;114903;-73
2021/05/02 05:24:37;;;;;;;43.80;28.35;;;;;;;12.50;69.77;97670.30;263510;1098;115049;-79
2021/05/02 05:29:40;;;;;;;44.68;27.15;;;;;;;12.49;69.57;97665.92;262855;1104;114802;-72
2021/05/02 05:34:43;;;;;;;38.10;26.40;;;;;;;12.46;69.40;97651.03;263426;1099;114867;-79
2021/05/02 05:39:47;;;;;;;35.05;22.58;;;;;;;12.44;69.99;97637.02;263523;1104;116129;-79
2021/05/02 05:44:50;;;;;;;35.95;22.20;;;;;;;12.41;69.15;97628.45;263535;1099;114833;-78
2021/05/02 05:49:53;;;;;;;33.18;21.40;;;;;;;12.39;69.43;97606.39;263574;1104;114294;-73
2021/05/02 05:54:56;;;;;;;32.93;21.40;;;;;;;12.43;69.72;97597.11;263514;1099;115463;-73
2021/05/02 05:59:59;;;;;;;30.55;21.28;;;;;;;12.47;69.78;97598.54;263479;1104;114846;-74
2021/05/02 06:05:06;;;;;;;26.65;18.98;;;;;;;12.49;69.85;97580.54;262116;1100;114793;-72
2021/05/02 06:10:09;;;;;;;24.45;17.78;;;;;;;12.52;70.05;97575.76;263501;1104;115114;-80
2021/05/02 06:15:13;;;;;;;20.78;15.75;;;;;;;12.56;70.03;97570.97;263561;1098;114720;-72
2021/05/02 06:20:16;;;;;;;21.98;14.43;;;;;;;12.62;69.38;97612.27;263511;1104;114953;-79
2021/05/02 06:25:20;;;;;;;19.35;13.78;;;;;;;12.72;70.30;97607.75;263499;1099;114729;-80
2021/05/02 06:30:26;;;;;;;16.78;12.53;;;;;;;12.74;69.58;97614.64;263614;1104;114822;-73
2021/05/02 06:35:29;;;;;;;18.63;13.70;;;;;;;12.77;69.93;97592.13;263512;1098;114660;-80
2021/05/02 06:40:34;;;;;;;15.13;12.18;;;;;;;12.78;69.69;97594.67;263553;1104;114913;-74
2021/05/02 06:45:36;;;;;;;16.38;11.55;;;;;;;12.82;70.19;97562.35;263526;1099;115397;-75
2021/05/02 06:50:40;;;;;;;13.35;10.25;;;;;;;12.84;69.13;97531.86;263017;1104;114765;-80
2021/05/02 06:55:43;;;;;;;12.95;10.03;;;;;;;12.84;69.78;97475.80;263498;1100;115128;-73
2021/05/02 07:00:48;;;;;;;9.33;8.18;;;;;;;12.79;69.87;97380.11;263495;1104;114975;-79
2021/05/02 07:05:53;;;;;;;11.05;8.58;;;;;;;12.75;69.83;97362.72;263499;1098;115005;-71
2021/05/02 07:10:56;;;;;;;10.30;8.20;;;;;;;12.74;70.01;97386.91;263543;1104;114836;-77
2021/05/02 07:16:00;;;;;;;8.08;6.40;;;;;;;12.76;69.67;97390.25;263437;1099;115059;-71
2021/05/02 07:21:05;;;;;;;8.50;5.68;;;;;;;12.87;70.43;97402.55;263514;1104;114341;-73
2021/05/02 07:26:09;;;;;;;7.78;6.00;;;;;;;13.02;70.66;97398.39;263426;1099;114932;-72
2021/05/02 07:31:12;;;;;;;9.38;7.00;;;;;;;13.22;71.51;97407.11;263209;1104;114590;-69
2021/05/02 07:36:17;;;;;;;8.28;6.10;;;;;;;13.45;70.94;97407.50;263522;1099;114401;-81
2021/05/02 07:41:25;;;;;;;7.60;6.53;;;;;;;13.56;71.06;97401.11;263449;1104;114592;-79
2021/05/02 07:46:28;;;;;;;9.50;6.63;;;;;;;13.65;71.12;97381.45;263400;1099;114633;-75
2021/05/02 07:51:32;;;;;;;7.85;6.48;;;;;;;13.77;70.70;97368.69;263463;1104;114825;-74
2021/05/02 07:56:36;;;;;;;7.25;6.00;;;;;;;13.91;71.02;97366.27;263517;1099;114436;-80
2021/05/02 08:01:39;;;;;;;8.65;7.75;;;;;;;14.10;70.85;97348.34;263682;1104;114532;-80
2021/05/02 08:06:43;;;;;;;12.50;9.35;;;;;;;14.27;70.93;97342.07;263570;1100;114107;-74
2021/05/02 08:11:46;;;;;;;13.08;10.08;;;;;;;14.43;70.94;97344.83;263535;1104;114730;-75
2021/05/02 08:16:49;;;;;;;16.43;11.70;;;;;;;14.63;70.97;97348.08;263441;1099;115001;-80
2021/05/02 08:21:53;;;;;;;16.58;13.28;;;;;;;14.78;71.45;97326.05;263476;1104;114848;-80
2021/05/02 08:26:56;;;;;;;20.28;15.98;;;;;;;14.83;70.61;97337.94;263485;1098;115002;-74
2021/05/02 08:31:59;;;;;;;27.13;19.55;;;;;;;14.85;70.82;97343.98;263403;1104;114888;-75
2021/05/02 08:37:06;;;;;;;23.50;17.45;;;;;;;14.92;70.77;97337.97;263552;1098;114958;-79
2021/05/02 08:42:09;;;;;;;21.23;16.60;;;;;;;15.01;70.77;97326.24;263540;1104;114957;-75
2021/05/02 08:47:13;;;;;;;23.38;19.03;;;;;;;15.03;70.92;97345.68;263494;1099;115130;-74
2021/05/02 08:52:17;;;;;;;27.88;20.15;;;;;;;15.12;70.94;97331.30;263465;1104;115095;-74
2021/05/02 08:57:20;;;;;;;27.93;19.93;;;;;;;15.12;70.57;97340.17;263617;1100;114400;-74
2021/05/02 09:02:29;;;;;;;26.38;17.80;;;;;;;15.17;70.56;97333.47;263719;1104;114952;-73
2021/05/02 09:07:46;;;;;;;25.33;18.23;;;;;;;15.29;71.04;97334.84;263596;1098;115671;-78
2021/05/02 09:13:01;;;;;;;21.65;16.50;;;;;;;15.33;71.05;97339.69;263574;1104;114956;-71
2021/05/02 09:18:17;;;;;;;21.68;16.78;;;;;;;15.29;70.45;97335.67;263676;1099;114452;-74
2021/05/02 09:23:20;;;;;;;20.33;14.43;;;;;;;15.28;70.55;97333.97;263478;1104;115321;-81
2021/05/02 09:28:53;;;;;;;20.52;14.75;;;;;;;15.41;71.04;97327.28;263515;1099;114635;-74
2021/05/02 09:34:11;;;;;;;19.50;14.93;;;;;;;15.53;70.90;97331.31;263559;1104;115427;-73
2021/05/02 09:39:14;;;;;;;19.93;14.90;;;;;;;15.61;71.38;97342.02;263529;1099;114657;-73
2021/05/02 09:44:41;;;;;;;19.85;15.75;;;;;;;15.71;70.78;97345.40;263490;1103;114982;-81
2021/05/02 09:50:03;;;;;;;18.37;13.83;;;;;;;15.90;71.01;97346.06;263506;1099;114805;-79
2021/05/02 09:55:30;;;;;;;16.75;14.23;;;;;;;16.05;71.22;97353.22;263484;1104;115332;-78
2021/05/02 10:00:42;;;;;;;18.15;14.85;;;;;;;16.16;71.04;97370.80;263492;1098;115091;-73
2021/05/02 10:06:10;;;;;;;15.90;12.50;;;;;;;16.13;70.90;97379.20;263533;1104;115009;-81
2021/05/02 10:11:13;;;;;;;19.15;13.88;;;;;;;15.93;70.19;97451.20;263484;1099;116609;-74
2021/05/02 10:16:16;;;;;;;21.38;14.68;;;;;;;15.73;69.63;97445.32;263451;1104;114917;-74
2021/05/02 10:21:19;;;;;;;19.88;15.03;;;;;;;15.54;69.46;97449.11;263439;1099;114742;-74
2021/05/02 10:26:22;;;;;;;22.30;15.85;;;;;;;15.40;69.40;97465.02;263485;1104;114905;-74
2021/05/02 10:31:29;;;;;;;19.85;15.20;;;;;;;15.28;69.33;97459.94;263469;1098;115141;-72
2021/05/02 10:36:32;;;;;;;21.65;15.18;;;;;;;15.17;69.12;97476.33;263534;1104;114997;-73
2021/05/02 10:41:38;;;;;;;19.60;14.13;;;;;;;15.05;68.96;97472.29;263493;1099;115351;-73
2021/05/02 10:46:44;;;;;;;20.30;13.55;;;;;;;14.93;68.61;97482.44;263321;1104;114878;-74
2021/05/02 10:51:54;;;;;;;14.73;10.20;;;;;;;14.84;68.44;97503.01;263031;1104;115071;-71
2021/05/02 10:57:01;;;;;;;10.93;6.85;;;;;;;14.73;67.97;97519.33;263501;1104;114908;-79
2021/05/02 11:02:42;;;;;;;11.03;6.85;;;;;;;14.65;67.48;97522.81;263187;1099;114823;-82
2021/05/02 11:07:48;;;;;;;9.08;7.23;;;;;;;14.63;67.82;97558.77;263457;1098;114842;-78
2021/05/02 11:12:51;;;;;;;8.90;6.80;;;;;;;14.54;67.10;97554.38;263503;1104;114660;-82
2021/05/02 11:17:55;;;;;;;6.98;5.10;;;;;;;14.38;66.80;97569.27;263440;1098;114441;-84
2021/05/02 11:22:58;;;;;;;6.33;4.65;;;;;;;14.20;67.03;97590.70;263524;1104;114515;-84
2021/05/02 11:28:03;;;;;;;5.73;4.23;;;;;;;14.04;67.04;97587.03;263456;1099;114790;-79
2021/05/02 11:33:22;;;;;;;5.78;3.48;;;;;;;13.85;66.82;97610.23;263388;1104;114340;-74
2021/05/02 11:38:39;;;;;;;4.70;2.95;;;;;;;13.71;66.61;97600.89;263425;1099;115088;-76
2021/05/02 11:43:43;;;;;;;11.20;3.50;;;;;;;13.59;66.11;97639.53;263512;1104;114624;-81
2021/05/02 11:48:48;;;;;;;5.53;2.90;;;;;;;13.41;66.71;97643.96;263484;1098;114952;-81
2021/05/02 11:53:51;;;;;;;;;;;;;;;13.22;65.92;97653.72;263560;1104;114947;-80
2021/05/02 11:59:02;;;;;;;5.30;2.60;;;;;;;13.06;66.45;97679.35;263518;1098;100905;-74
2021/05/02 12:04:18;;;;;;;3.25;2.23;;;;;;;12.90;65.94;97683.45;263549;1104;114442;-74
2021/05/02 12:09:23;;;;;;;;;;;;;;;12.72;65.62;97709.19;263494;1098;114797;-74
2021/05/02 12:14:29;;;;;;;4.78;2.38;;;;;;;12.53;65.74;97713.56;263583;1104;100684;-78
2021/05/02 12:19:33;;;;;;;3.28;1.78;;;;;;;12.39;65.44;97727.29;263532;1098;114595;-77
2021/05/02 12:24:36;;;;;;;3.80;1.80;;;;;;;12.23;65.77;97740.34;263488;1104;114820;-79
2021/05/02 12:29:46;;;;;;;2.75;1.95;;;;;;;12.08;65.04;97743.38;263477;1098;114260;-84
2021/05/02 12:34:51;;;;;;;4.43;2.17;;;;;;;11.97;65.27;97753.33;263515;1104;114659;-78
2021/05/02 12:40:01;;;;;;;4.60;1.90;;;;;;;11.88;65.25;97784.29;263464;1098;114570;-79
2021/05/02 12:45:08;;;;;;;3.50;2.15;;;;;;;11.71;65.54;97809.71;263511;1104;114294;-80
2021/05/02 12:50:13;;;;;;;4.05;2.25;;;;;;;11.53;65.51;97817.48;263099;1098;114889;-76
2021/05/02 12:55:19;;;;;;;5.48;2.60;;;;;;;11.45;65.81;97835.11;263167;1104;114348;-86
2021/05/02 13:00:27;;;;;;;3.88;2.35;;;;;;;11.34;65.04;97844.86;263449;1098;114806;-84
2021/05/02 13:05:31;;;;;;;4.58;2.45;;;;;;;11.32;65.02;97875.25;263559;1104;114824;-84
2021/05/02 13:10:34;;;;;;;6.13;2.68;;;;;;;11.28;65.49;97871.16;263515;1098;114586;-87
2021/05/02 13:15:40;;;;;;;6.00;2.28;;;;;;;11.21;65.14;97888.59;263455;1104;114599;-78
2021/05/02 13:20:50;;;;;;;4.88;2.55;;;;;;;11.17;65.70;97879.17;263503;1099;114507;-76
2021/05/02 13:26:14;;;;;;;5.28;2.70;;;;;;;11.18;65.54;97881.73;263488;1104;114496;-77
2021/05/02 13:31:17;;;;;;;4.58;2.83;;;;;;;11.20;65.16;97902.89;263571;1099;114675;-83
2021/05/02 13:36:20;;;;;;;5.68;2.40;;;;;;;11.21;65.56;97932.07;263514;1104;114584;-76
2021/05/02 13:41:23;;;;;;;4.55;3.28;;;;;;;11.20;65.32;97919.70;263425;1099;114425;-77
2021/05/02 13:46:26;;;;;;;6.80;2.78;;;;;;;11.16;65.11;97936.08;263336;1104;114748;-83
2021/05/02 13:51:30;;;;;;;6.00;3.23;;;;;;;11.06;65.42;97938.64;263430;1099;114489;-81
2021/05/02 13:56:34;;;;;;;4.33;2.73;;;;;;;11.11;65.22;97971.08;263489;1104;114425;-77
2021/05/02 14:01:38;;;;;;;5.15;3.08;;;;;;;11.24;65.31;97985.09;263498;1099;114845;-78
2021/05/02 14:06:41;;;;;;;4.80;2.63;;;;;;;11.29;64.94;98006.84;263501;1104;114740;-78
2021/05/02 14:11:45;;;;;;;5.93;2.80;;;;;;;11.34;64.34;98010.00;263526;1098;114383;-78
2021/05/02 14:16:48;;;;;;;3.77;2.70;;;;;;;11.46;64.57;98032.11;263462;1104;114814;-79
2021/05/02 14:21:51;;;;;;;3.45;2.10;;;;;;;11.60;64.23;98062.95;263545;1099;115820;-78
2021/05/02 14:26:56;;;;;;;3.00;1.63;;;;;;;11.62;62.94;98047.70;263466;1104;114499;-76
2021/05/02 14:31:59;;;;;;;3.10;1.73;;;;;;;11.52;63.25;98073.41;262919;1099;115245;-82
2021/05/02 14:37:05;;;;;;;3.73;1.48;;;;;;;11.44;62.73;98087.33;263394;1104;114686;-80
2021/05/02 14:42:09;;;;;;;4.23;1.40;;;;;;;11.39;62.48;98097.52;263485;1100;115047;-76
2021/05/02 14:47:13;;;;;;;3.13;1.60;;;;;;;11.35;62.28;98144.03;263529;1104;114703;-74
2021/05/02 14:52:16;;;;;;;;;;;;;;;11.31;62.27;98140.77;263483;1098;114724;-80
2021/05/02 14:57:21;;;;;;;2.48;1.40;;;;;;;11.23;61.82;98155.64;263572;1103;100722;-74
2021/05/02 15:02:24;;;;;;;3.05;1.40;;;;;;;11.11;61.52;98147.66;263553;1099;114805;-74
2021/05/02 15:14:37;;;;;;;2.43;1.13;;;;;;;11.02;61.06;98164.34;263561;1099;114695;-79
2021/05/02 15:19:40;;;;;;;2.50;1.00;;;;;;;10.93;60.61;98167.71;263512;1104;114695;-74
2021/05/02 15:24:44;;;;;;;1.95;1.30;;;;;;;10.87;60.94;98170.88;263465;1099;114380;-80
2021/05/02 15:29:47;;;;;;;1.80;1.23;;;;;;;10.82;60.78;98159.72;263568;1104;114896;-80
2021/05/02 15:34:50;;;;;;;3.03;1.25;;;;;;;10.78;61.10;98159.11;263629;1098;114504;-81
2021/05/02 15:39:54;;;;;;;2.73;1.60;;;;;;;10.76;61.53;98149.54;263544;1103;114071;-74
2021/05/02 15:44:57;;;;;;;3.15;1.60;;;;;;;10.74;61.04;98173.63;263498;1099;114718;-80
2021/05/02 15:50:01;;;;;;;2.70;1.45;;;;;;;10.66;61.06;98178.66;263485;1104;115095;-82
2021/05/02 15:55:04;;;;;;;2.60;1.60;;;;;;;10.64;61.61;98169.97;263484;1099;114671;-81
2021/05/02 16:00:08;;;;;;;3.53;1.78;;;;;;;10.70;61.28;98185.47;263519;1104;114857;-75
2021/05/02 16:05:16;;;;;;;3.23;1.68;;;;;;;10.71;60.64;98197.80;263531;1098;114537;-81
2021/05/02 16:10:19;;;;;;;3.93;1.88;;;;;;;10.63;60.93;98208.16;263546;1104;114495;-73
2021/05/02 16:15:23;;;;;;;3.38;1.60;;;;;;;10.59;60.77;98220.01;263434;1098;114829;-73
2021/05/02 16:20:26;;;;;;;1.63;1.20;;;;;;;10.44;60.59;98227.34;263454;1104;114443;-79
2021/05/02 16:25:29;;;;;;;2.38;1.58;;;;;;;10.34;60.79;98234.30;263517;1099;114719;-83
2021/05/02 16:30:33;;;;;;;2.13;1.40;;;;;;;10.29;60.68;98250.61;263559;1104;114852;-71
2021/05/02 16:35:38;;;;;;;1.73;1.23;;;;;;;10.29;60.87;98255.92;263458;1098;114481;-82
2021/05/02 16:40:41;;;;;;;1.53;1.20;;;;;;;10.15;60.60;98259.53;263448;1104;114733;-78
2021/05/02 16:45:44;;;;;;;2.08;1.20;;;;;;;10.11;60.79;98265.20;263448;1098;114539;-83
2021/05/02 16:50:47;;;;;;;2.80;1.40;;;;;;;10.05;60.56;98305.51;263446;1104;114714;-83
2021/05/02 16:55:51;;;;;;;2.80;1.70;;;;;;;10.01;60.69;98280.11;263510;1098;114446;-83
2021/05/02 17:00:54;;;;;;;2.58;1.68;;;;;;;9.97;61.13;98274.17;263544;1103;114773;-85
2021/05/02 17:05:58;;;;;;;3.10;1.40;;;;;;;9.98;60.94;98298.94;263443;1098;114492;-81
2021/05/02 17:11:02;;;;;;;2.30;1.40;;;;;;;9.98;61.12;98293.62;263575;1104;114330;-82
2021/05/02 17:16:05;;;;;;;2.30;1.50;;;;;;;9.94;61.02;98288.52;263421;1099;114614;-82
2021/05/02 17:21:08;;;;;;;2.48;1.48;;;;;;;9.98;60.61;98305.09;263502;1104;114309;-83
2021/05/02 17:26:12;;;;;;;2.40;1.60;;;;;;;10.10;61.19;98319.34;262960;1098;114532;-82
2021/05/02 17:31:16;;;;;;;2.83;1.70;;;;;;;10.06;61.38;98339.98;263497;1104;114834;-81
2021/05/02 17:36:21;;;;;;;3.23;1.53;;;;;;;10.02;60.92;98359.77;263448;1099;114523;-85
2021/05/02 17:41:24;;;;;;;2.70;1.73;;;;;;;10.00;61.24;98353.70;263476;1104;114728;-83
2021/05/02 17:46:28;;;;;;;3.53;1.90;;;;;;;10.05;61.02;98367.50;263516;1099;114876;-80
2021/05/02 17:51:32;;;;;;;3.58;2.30;;;;;;;9.97;60.82;98376.98;263450;1104;114485;-74
2021/05/02 17:56:35;;;;;;;3.50;1.68;;;;;;;9.96;61.24;98381.45;263467;1098;114519;-73
2021/05/02 18:01:38;;;;;;;4.95;1.80;;;;;;;9.95;60.94;98395.68;263485;1104;114608;-80
2021/05/02 18:06:41;;;;;;;2.48;1.75;;;;;;;9.88;60.92;98391.75;263485;1099;114226;-79
2021/05/02 18:11:44;;;;;;;2.73;1.68;;;;;;;9.70;61.19;98399.20;263489;1104;114953;-80
2021/05/02 18:16:48;;;;;;;3.40;1.93;;;;;;;9.64;61.09;98411.09;263440;1098;114614;-78
2021/05/02 18:21:56;;;;;;;4.13;2.00;;;;;;;9.60;61.25;98430.00;263451;1104;114274;-78
2021/05/02 18:26:59;;;;;;;3.15;2.10;;;;;;;9.66;61.83;98442.88;263537;1098;114417;-74
2021/05/02 18:32:02;;;;;;;3.45;2.33;;;;;;;9.64;61.56;98466.88;263438;1104;114877;-81
2021/05/02 18:37:05;;;;;;;3.00;2.13;;;;;;;9.66;61.72;98464.98;263752;1099;114638;-78
2021/05/02 18:42:09;;;;;;;3.85;2.30;;;;;;;9.67;61.53;98457.86;263472;1098;114568;-78
2021/05/02 18:47:12;;;;;;;2.88;1.80;;;;;;;9.69;61.66;98475.41;263480;1104;114353;-79
2021/05/02 18:52:16;;;;;;;5.05;2.10;;;;;;;9.65;61.25;98486.35;263506;1098;114393;-78
2021/05/02 18:57:19;;;;;;;3.48;2.05;;;;;;;9.63;61.74;98490.91;263501;1104;114510;-72
2021/05/02 19:02:22;;;;;;;3.55;2.15;;;;;;;9.62;61.54;98498.03;263544;1098;114576;-72
2021/05/02 19:07:26;;;;;;;5.95;2.33;;;;;;;9.67;61.67;98506.53;262180;1103;114341;-73
2021/05/02 19:12:29;;;;;;;4.00;2.10;;;;;;;9.68;61.86;98516.22;263476;1098;114336;-79
2021/05/02 19:30:53;;;;;;;3.90;2.58;;;;;;;9.67;61.74;98538.41;270422;1081;100750;-68
2021/05/02 19:36:22;;;;;;;5.08;3.05;;;;;;;9.60;61.80;98545.08;269988;1082;114315;-67
2021/05/02 19:41:31;;;;;;;4.83;2.85;;;;;;;9.53;61.30;98559.72;269919;1082;114261;-69
2021/05/02 19:47:06;;;;;;;7.00;3.38;;;;;;;9.33;61.14;98552.20;269313;1082;114003;-67
2021/05/02 19:52:19;;;;;;;5.88;3.53;;;;;;;9.24;61.28;98559.83;269534;1082;114341;-68
2021/05/02 19:57:30;;;;;;;4.35;3.23;;;;;;;9.22;61.83;98563.52;269999;1081;114062;-66
2021/05/02 20:02:35;;;;;;;3.73;2.35;;;;;;;9.19;61.61;98569.02;269917;1082;113848;-68
2021/05/02 20:07:41;;;;;;;3.48;2.40;;;;;;;9.20;61.34;98579.56;269914;1082;114033;-69
2021/05/02 20:12:51;;;;;;;4.53;3.03;;;;;;;9.22;61.51;98579.45;269681;1082;114171;-69
2021/05/02 20:17:59;;;;;;;4.70;3.38;;;;;;;9.21;61.14;98589.22;269839;1082;114178;-70
2021/05/02 20:23:09;;;;;;;4.08;3.15;;;;;;;9.18;61.70;98605.34;269529;1082;114889;-68
2021/05/02 20:28:15;;;;;;;4.53;3.33;;;;;;;9.15;61.60;98610.84;270058;1082;114424;-68
2021/05/02 20:33:20;;;;;;;5.33;4.13;;;;;;;9.13;61.62;98607.42;270001;1082;114501;-68
2021/05/02 20:38:39;;;;;;;6.28;4.70;;;;;;;9.06;61.23;98607.91;269796;1082;114918;-69
2021/05/02 20:43:55;;;;;;;7.50;3.70;;;;;;;9.02;61.61;98612.56;269787;1082;114480;-70
2021/05/02 20:49:13;;;;;;;5.30;3.33;;;;;;;9.05;61.42;98620.33;269913;1082;113802;-68
2021/05/02 20:54:18;;;;;;;5.48;3.80;;;;;;;9.08;61.24;98601.56;269314;1082;114323;-67
2021/05/02 20:59:26;;;;;;;6.03;4.15;;;;;;;9.11;61.47;98611.14;269870;1083;114373;-72
2021/05/02 21:04:36;;;;;;;5.35;4.20;;;;;;;9.09;61.09;98586.48;269988;1082;114437;-68
2021/05/02 21:09:48;;;;;;;10.08;5.60;;;;;;;9.05;61.33;98596.45;269416;1082;114030;-70
2021/05/02 21:15:04;;;;;;;6.90;4.70;;;;;;;9.02;60.97;98578.05;269927;1082;114636;-68
2021/05/02 21:20:09;;;;;;;5.23;4.23;;;;;;;8.98;61.34;98606.59;270047;1082;114460;-68
2021/05/02 21:25:14;;;;;;;6.25;4.45;;;;;;;8.98;60.76;98626.98;270048;1082;114153;-68
2021/05/02 21:30:17;;;;;;;7.65;5.48;;;;;;;8.96;61.28;98613.78;270006;1082;114032;-72
2021/05/02 21:35:20;;;;;;;5.98;4.75;;;;;;;8.97;61.29;98626.13;269935;1082;114333;-68
2021/05/02 21:40:25;;;;;;;7.48;5.38;;;;;;;8.95;61.09;98643.09;269967;1082;114068;-67
2021/05/02 21:45:28;;;;;;;7.10;5.43;;;;;;;8.90;61.02;98646.03;269351;1082;114017;-67
2021/05/02 21:50:33;;;;;;;7.25;5.50;;;;;;;8.96;61.38;98645.63;269966;1082;114185;-67
2021/05/02 21:55:36;;;;;;;;;;;;;;;9.01;61.25;98648.02;269878;1082;115293;-69
2021/05/02 22:00:58;;;;;;;8.70;6.58;;;;;;;9.05;61.58;98648.69;270063;1082;100991;-69
2021/05/02 22:06:21;;;;;;;8.20;6.05;;;;;;;9.11;61.61;98653.62;269952;1082;115325;-67
2021/05/02 22:11:45;;;;;;;6.23;4.58;;;;;;;9.15;61.29;98671.05;269976;1082;114081;-67
2021/05/02 22:16:48;;;;;;;4.90;4.05;;;;;;;9.15;60.84;98673.70;269441;1082;114473;-69
2021/05/02 22:21:56;;;;;;;5.48;3.95;;;;;;;9.10;60.78;98684.59;270044;1082;114663;-68
2021/05/02 22:27:01;;;;;;;4.60;3.80;;;;;;;9.09;60.44;98693.52;270078;1082;114120;-68
2021/05/02 22:32:06;;;;;;;5.68;4.20;;;;;;;9.08;60.30;98693.63;270045;1082;114465;-68
2021/05/02 22:37:11;;;;;;;4.95;4.08;;;;;;;9.04;60.21;98697.42;270060;1082;114373;-68
2021/05/02 22:42:18;;;;;;;4.48;3.55;;;;;;;8.98;60.19;98693.33;270055;1082;113722;-73
2021/05/02 22:47:21;;;;;;;4.10;3.50;;;;;;;8.93;60.19;98692.73;269836;1082;116829;-71
2021/05/02 22:52:27;;;;;;;4.38;3.90;;;;;;;8.92;60.05;98701.66;269991;1082;114036;-71
2021/05/02 22:57:31;;;;;;;7.53;4.30;;;;;;;8.89;59.64;98707.99;269940;1082;114045;-72
2021/05/02 23:02:38;;;;;;;5.68;4.23;;;;;;;8.86;60.17;98707.33;270021;1082;114116;-70
2021/05/02 23:07:42;;;;;;;7.93;5.53;;;;;;;8.88;60.23;98724.02;270020;1082;114156;-70
2021/05/02 23:12:48;;;;;;;6.55;5.30;;;;;;;8.89;59.86;98707.14;270012;1082;114213;-71
2021/05/02 23:17:57;;;;;;;6.75;5.10;;;;;;;8.81;59.78;98714.73;269922;1082;114779;-70
2021/05/02 23:23:23;;;;;;;6.68;4.23;;;;;;;8.76;59.51;98717.63;270020;1082;114463;-69
2021/05/02 23:28:38;;;;;;;9.83;5.73;;;;;;;8.67;59.57;98713.75;270061;1082;113911;-70
2021/05/02 23:33:41;;;;;;;6.63;5.50;;;;;;;8.60;59.62;98723.02;270013;1082;114380;-72
2021/05/02 23:38:44;;;;;;;8.88;6.30;;;;;;;8.56;60.34;98723.27;269822;1082;114199;-73
2021/05/02 23:43:48;;;;;;;10.18;5.58;;;;;;;8.52;60.12;98730.55;269938;1082;114110;-67